sensor_id;sensor_type;location;lat;lon;timestamp;temperature;humidity
37528;DHT22;23372;52.050;4.810;2023-07-31T00:01:59;17.60;99.90
37528;DHT22;23372;52.050;4.810;2023-07-31T00:04:25;17.50;99.90
37528;DHT22;23372;52.050;4.810;2023-07-31T00:06:50;17.60;99.90
37528;DHT22;23372;52.050;4.810;2023-07-31T00:09:16;17.60;99.90
37528;DHT22;23372;52.050;4.810;2023-07-31T00:11:41;17.60;99.90
37528;DHT22;23372;52.050;4.810;2023-07-31T00:14:07;17.60;99.90
37528;DHT22;23372;52.050;4.810;2023-07-31T00:16:32;17.50;99.90
37528;DHT22;23372;52.050;4.810;2023-07-31T00:18:58;17.50;99.90
37528;DHT22;23372;52.050;4.810;2023-07-31T00:21:24;17.50;99.90
37528;DHT22;23372;52.050;4.810;2023-07-31T00:23:49;17.40;99.90
37528;DHT22;23372;52.050;4.810;2023-07-31T00:26:15;17.50;99.90
37528;DHT22;23372;52.050;4.810;2023-07-31T00:28:40;17.50;99.90
37528;DHT22;23372;52.050;4.810;2023-07-31T00:31:06;17.40;99.90
37528;DHT22;23372;52.050;4.810;2023-07-31T00:33:34;17.40;99.90
37528;DHT22;23372;52.050;4.810;2023-07-31T00:36:00;17.40;99.90
37528;DHT22;23372;52.050;4.810;2023-07-31T00:38:25;17.40;99.90
37528;DHT22;23372;52.050;4.810;2023-07-31T00:40:51;17.30;99.90
37528;DHT22;23372;52.050;4.810;2023-07-31T00:43:16;17.30;99.90
37528;DHT22;23372;52.050;4.810;2023-07-31T00:45:42;17.40;99.90
37528;DHT22;23372;52.050;4.810;2023-07-31T00:48:08;17.40;99.90
37528;DHT22;23372;52.050;4.810;2023-07-31T00:50:34;17.40;99.90
37528;DHT22;23372;52.050;4.810;2023-07-31T00:53:00;17.40;99.90
37528;DHT22;23372;52.050;4.810;2023-07-31T00:55:26;17.30;99.90
37528;DHT22;23372;52.050;4.810;2023-07-31T00:57:52;17.30;99.90
37528;DHT22;23372;52.050;4.810;2023-07-31T01:00:18;17.30;99.90
37528;DHT22;23372;52.050;4.810;2023-07-31T01:02:44;17.40;99.90
37528;DHT22;23372;52.050;4.810;2023-07-31T01:05:10;17.30;99.90
37528;DHT22;23372;52.050;4.810;2023-07-31T01:07:45;17.30;99.90
37528;DHT22;23372;52.050;4.810;2023-07-31T01:10:24;17.30;99.90
37528;DHT22;23372;52.050;4.810;2023-07-31T01:12:53;17.30;99.90
37528;DHT22;23372;52.050;4.810;2023-07-31T01:15:18;17.40;99.90
37528;DHT22;23372;52.050;4.810;2023-07-31T01:17:44;17.30;99.90
37528;DHT22;23372;52.050;4.810;2023-07-31T01:28:04;17.20;99.90
37528;DHT22;23372;52.050;4.810;2023-07-31T01:30:37;17.20;99.90
37528;DHT22;23372;52.050;4.810;2023-07-31T01:33:05;17.10;99.90
37528;DHT22;23372;52.050;4.810;2023-07-31T01:35:34;17.10;99.90
37528;DHT22;23372;52.050;4.810;2023-07-31T01:38:00;17.00;99.90
37528;DHT22;23372;52.050;4.810;2023-07-31T01:40:25;17.00;99.90
37528;DHT22;23372;52.050;4.810;2023-07-31T01:42:51;17.00;99.90
37528;DHT22;23372;52.050;4.810;2023-07-31T01:45:16;17.00;99.90
37528;DHT22;23372;52.050;4.810;2023-07-31T01:47:42;17.00;99.90
37528;DHT22;23372;52.050;4.810;2023-07-31T01:50:08;17.00;99.90
37528;DHT22;23372;52.050;4.810;2023-07-31T01:52:33;17.10;99.90
37528;DHT22;23372;52.050;4.810;2023-07-31T01:54:59;17.10;99.90
37528;DHT22;23372;52.050;4.810;2023-07-31T01:57:25;17.10;99.90
37528;DHT22;23372;52.050;4.810;2023-07-31T01:59:50;17.20;99.90
37528;DHT22;23372;52.050;4.810;2023-07-31T02:02:18;17.20;99.90
37528;DHT22;23372;52.050;4.810;2023-07-31T02:04:44;17.20;99.90
37528;DHT22;23372;52.050;4.810;2023-07-31T02:07:10;17.20;99.90
37528;DHT22;23372;52.050;4.810;2023-07-31T02:09:35;17.10;99.90
37528;DHT22;23372;52.050;4.810;2023-07-31T02:12:01;17.20;99.90
37528;DHT22;23372;52.050;4.810;2023-07-31T02:14:27;17.20;99.90
37528;DHT22;23372;52.050;4.810;2023-07-31T02:16:52;17.20;99.90
37528;DHT22;23372;52.050;4.810;2023-07-31T02:19:18;17.20;99.90
37528;DHT22;23372;52.050;4.810;2023-07-31T02:21:43;17.30;99.90
37528;DHT22;23372;52.050;4.810;2023-07-31T02:24:09;17.10;99.90
37528;DHT22;23372;52.050;4.810;2023-07-31T02:26:35;17.20;99.90
37528;DHT22;23372;52.050;4.810;2023-07-31T02:29:00;17.20;99.90
37528;DHT22;23372;52.050;4.810;2023-07-31T02:31:26;17.20;99.90
37528;DHT22;23372;52.050;4.810;2023-07-31T02:33:52;17.20;99.90
37528;DHT22;23372;52.050;4.810;2023-07-31T02:36:17;17.30;99.90
37528;DHT22;23372;52.050;4.810;2023-07-31T02:38:43;17.20;99.90
37528;DHT22;23372;52.050;4.810;2023-07-31T02:41:08;17.30;99.90
37528;DHT22;23372;52.050;4.810;2023-07-31T02:43:34;17.30;99.90
37528;DHT22;23372;52.050;4.810;2023-07-31T02:46:00;17.20;99.90
37528;DHT22;23372;52.050;4.810;2023-07-31T02:48:25;17.20;99.90
37528;DHT22;23372;52.050;4.810;2023-07-31T02:50:51;17.10;99.90
37528;DHT22;23372;52.050;4.810;2023-07-31T02:53:16;17.30;99.90
37528;DHT22;23372;52.050;4.810;2023-07-31T02:55:42;17.20;99.90
37528;DHT22;23372;52.050;4.810;2023-07-31T02:58:07;17.10;99.90
37528;DHT22;23372;52.050;4.810;2023-07-31T03:00:33;17.20;99.90
37528;DHT22;23372;52.050;4.810;2023-07-31T03:02:58;17.20;99.90
37528;DHT22;23372;52.050;4.810;2023-07-31T03:05:24;17.20;99.90
37528;DHT22;23372;52.050;4.810;2023-07-31T03:07:49;17.10;99.90
37528;DHT22;23372;52.050;4.810;2023-07-31T03:10:15;17.20;99.90
37528;DHT22;23372;52.050;4.810;2023-07-31T03:12:41;17.20;99.90
37528;DHT22;23372;52.050;4.810;2023-07-31T03:15:07;17.20;99.90
37528;DHT22;23372;52.050;4.810;2023-07-31T03:17:33;17.10;99.90
37528;DHT22;23372;52.050;4.810;2023-07-31T03:19:58;17.10;99.90
37528;DHT22;23372;52.050;4.810;2023-07-31T03:22:24;17.20;99.90
37528;DHT22;23372;52.050;4.810;2023-07-31T03:24:49;17.20;99.90
37528;DHT22;23372;52.050;4.810;2023-07-31T03:27:15;17.30;99.90
37528;DHT22;23372;52.050;4.810;2023-07-31T03:29:40;17.20;99.90
37528;DHT22;23372;52.050;4.810;2023-07-31T03:32:06;17.30;99.90
37528;DHT22;23372;52.050;4.810;2023-07-31T03:34:32;17.30;99.90
37528;DHT22;23372;52.050;4.810;2023-07-31T03:36:58;17.30;99.90
37528;DHT22;23372;52.050;4.810;2023-07-31T03:39:23;17.40;99.90
37528;DHT22;23372;52.050;4.810;2023-07-31T03:41:49;17.20;99.90
37528;DHT22;23372;52.050;4.810;2023-07-31T03:44:15;17.20;99.90
37528;DHT22;23372;52.050;4.810;2023-07-31T03:46:40;17.20;99.90
37528;DHT22;23372;52.050;4.810;2023-07-31T03:49:06;17.20;99.90
37528;DHT22;23372;52.050;4.810;2023-07-31T03:51:31;17.30;99.90
37528;DHT22;23372;52.050;4.810;2023-07-31T03:53:57;17.20;99.90
37528;DHT22;23372;52.050;4.810;2023-07-31T03:56:22;17.20;99.90
37528;DHT22;23372;52.050;4.810;2023-07-31T03:58:48;17.10;99.90
37528;DHT22;23372;52.050;4.810;2023-07-31T04:01:13;17.20;99.90
37528;DHT22;23372;52.050;4.810;2023-07-31T04:03:39;17.00;99.90
37528;DHT22;23372;52.050;4.810;2023-07-31T04:06:04;17.00;99.90
37528;DHT22;23372;52.050;4.810;2023-07-31T04:08:32;17.00;99.90
37528;DHT22;23372;52.050;4.810;2023-07-31T04:10:57;16.90;99.90
37528;DHT22;23372;52.050;4.810;2023-07-31T04:13:23;16.80;99.90
37528;DHT22;23372;52.050;4.810;2023-07-31T04:15:49;16.80;99.90
37528;DHT22;23372;52.050;4.810;2023-07-31T04:18:16;16.90;99.90
37528;DHT22;23372;52.050;4.810;2023-07-31T04:20:41;16.90;99.90
37528;DHT22;23372;52.050;4.810;2023-07-31T04:23:07;16.70;99.90
37528;DHT22;23372;52.050;4.810;2023-07-31T04:25:32;16.70;99.90
37528;DHT22;23372;52.050;4.810;2023-07-31T04:28:00;16.70;99.90
37528;DHT22;23372;52.050;4.810;2023-07-31T04:30:26;16.60;99.90
37528;DHT22;23372;52.050;4.810;2023-07-31T04:32:51;16.70;99.90
37528;DHT22;23372;52.050;4.810;2023-07-31T04:35:17;16.60;99.90
37528;DHT22;23372;52.050;4.810;2023-07-31T04:37:42;16.80;99.90
37528;DHT22;23372;52.050;4.810;2023-07-31T04:40:08;16.80;99.90
37528;DHT22;23372;52.050;4.810;2023-07-31T04:42:34;16.70;99.90
37528;DHT22;23372;52.050;4.810;2023-07-31T04:45:00;16.80;99.90
37528;DHT22;23372;52.050;4.810;2023-07-31T04:47:25;16.80;99.90
37528;DHT22;23372;52.050;4.810;2023-07-31T04:49:51;16.60;99.90
37528;DHT22;23372;52.050;4.810;2023-07-31T04:52:16;16.70;99.90
37528;DHT22;23372;52.050;4.810;2023-07-31T04:54:42;16.70;99.90
37528;DHT22;23372;52.050;4.810;2023-07-31T04:57:07;16.70;99.90
37528;DHT22;23372;52.050;4.810;2023-07-31T04:59:33;16.60;99.90
37528;DHT22;23372;52.050;4.810;2023-07-31T05:01:58;16.60;99.90
37528;DHT22;23372;52.050;4.810;2023-07-31T05:04:24;16.60;99.90
37528;DHT22;23372;52.050;4.810;2023-07-31T05:06:49;16.50;99.90
37528;DHT22;23372;52.050;4.810;2023-07-31T05:09:15;16.60;99.90
37528;DHT22;23372;52.050;4.810;2023-07-31T05:11:41;16.60;99.90
37528;DHT22;23372;52.050;4.810;2023-07-31T05:14:08;16.60;99.90
37528;DHT22;23372;52.050;4.810;2023-07-31T05:16:34;16.50;99.90
37528;DHT22;23372;52.050;4.810;2023-07-31T05:18:59;16.50;99.90
37528;DHT22;23372;52.050;4.810;2023-07-31T05:21:25;16.50;99.90
37528;DHT22;23372;52.050;4.810;2023-07-31T05:23:51;16.60;99.90
37528;DHT22;23372;52.050;4.810;2023-07-31T05:26:16;16.60;99.90
37528;DHT22;23372;52.050;4.810;2023-07-31T05:28:43;16.60;99.90
37528;DHT22;23372;52.050;4.810;2023-07-31T05:31:08;16.60;99.90
37528;DHT22;23372;52.050;4.810;2023-07-31T05:33:34;16.70;99.90
37528;DHT22;23372;52.050;4.810;2023-07-31T05:35:59;16.70;99.90
37528;DHT22;23372;52.050;4.810;2023-07-31T05:38:25;16.70;99.90
37528;DHT22;23372;52.050;4.810;2023-07-31T05:40:51;16.60;99.90
37528;DHT22;23372;52.050;4.810;2023-07-31T05:43:16;16.70;99.90
37528;DHT22;23372;52.050;4.810;2023-07-31T05:45:42;16.90;99.90
37528;DHT22;23372;52.050;4.810;2023-07-31T05:48:08;16.80;99.90
37528;DHT22;23372;52.050;4.810;2023-07-31T05:50:34;16.80;99.90
37528;DHT22;23372;52.050;4.810;2023-07-31T05:52:59;16.80;99.90
37528;DHT22;23372;52.050;4.810;2023-07-31T05:55:25;16.70;99.90
37528;DHT22;23372;52.050;4.810;2023-07-31T05:57:53;16.90;99.90
37528;DHT22;23372;52.050;4.810;2023-07-31T06:00:19;16.90;99.90
37528;DHT22;23372;52.050;4.810;2023-07-31T06:02:46;16.90;99.90
37528;DHT22;23372;52.050;4.810;2023-07-31T06:05:12;16.90;99.90
37528;DHT22;23372;52.050;4.810;2023-07-31T06:07:38;16.90;99.90
37528;DHT22;23372;52.050;4.810;2023-07-31T06:10:04;17.00;99.90
37528;DHT22;23372;52.050;4.810;2023-07-31T06:12:34;17.00;99.90
37528;DHT22;23372;52.050;4.810;2023-07-31T06:15:00;16.90;99.90
37528;DHT22;23372;52.050;4.810;2023-07-31T06:17:26;16.90;99.90
37528;DHT22;23372;52.050;4.810;2023-07-31T06:19:52;17.00;99.90
37528;DHT22;23372;52.050;4.810;2023-07-31T06:22:17;17.00;99.90
37528;DHT22;23372;52.050;4.810;2023-07-31T06:24:43;16.90;99.90
37528;DHT22;23372;52.050;4.810;2023-07-31T06:27:10;17.00;99.90
37528;DHT22;23372;52.050;4.810;2023-07-31T06:29:35;17.00;99.90
37528;DHT22;23372;52.050;4.810;2023-07-31T06:32:01;17.00;99.90
37528;DHT22;23372;52.050;4.810;2023-07-31T06:34:26;17.10;99.90
37528;DHT22;23372;52.050;4.810;2023-07-31T06:36:52;17.10;99.90
37528;DHT22;23372;52.050;4.810;2023-07-31T06:39:18;17.20;99.90
37528;DHT22;23372;52.050;4.810;2023-07-31T06:41:44;17.30;99.90
37528;DHT22;23372;52.050;4.810;2023-07-31T06:44:10;17.40;99.90
37528;DHT22;23372;52.050;4.810;2023-07-31T06:46:35;17.40;99.90
37528;DHT22;23372;52.050;4.810;2023-07-31T06:49:01;17.40;99.90
37528;DHT22;23372;52.050;4.810;2023-07-31T06:51:27;17.40;99.90
37528;DHT22;23372;52.050;4.810;2023-07-31T06:53:52;17.40;99.90
37528;DHT22;23372;52.050;4.810;2023-07-31T06:56:18;17.40;99.90
37528;DHT22;23372;52.050;4.810;2023-07-31T06:58:43;17.30;99.90
37528;DHT22;23372;52.050;4.810;2023-07-31T07:01:09;17.30;99.90
37528;DHT22;23372;52.050;4.810;2023-07-31T07:03:34;17.30;99.90
37528;DHT22;23372;52.050;4.810;2023-07-31T07:06:00;17.40;99.90
37528;DHT22;23372;52.050;4.810;2023-07-31T07:08:26;17.40;99.90
37528;DHT22;23372;52.050;4.810;2023-07-31T07:10:52;17.40;99.90
37528;DHT22;23372;52.050;4.810;2023-07-31T07:13:17;17.40;99.90
37528;DHT22;23372;52.050;4.810;2023-07-31T07:15:47;17.30;99.90
37528;DHT22;23372;52.050;4.810;2023-07-31T07:18:13;17.30;99.90
37528;DHT22;23372;52.050;4.810;2023-07-31T07:20:39;17.40;99.90
37528;DHT22;23372;52.050;4.810;2023-07-31T07:23:05;17.50;99.90
37528;DHT22;23372;52.050;4.810;2023-07-31T07:25:30;17.60;99.90
37528;DHT22;23372;52.050;4.810;2023-07-31T07:27:56;17.60;99.90
37528;DHT22;23372;52.050;4.810;2023-07-31T07:30:22;17.60;99.90
37528;DHT22;23372;52.050;4.810;2023-07-31T07:32:48;17.70;99.90
37528;DHT22;23372;52.050;4.810;2023-07-31T07:35:14;17.70;99.90
37528;DHT22;23372;52.050;4.810;2023-07-31T07:37:40;17.80;99.90
37528;DHT22;23372;52.050;4.810;2023-07-31T07:40:06;17.70;99.90
37528;DHT22;23372;52.050;4.810;2023-07-31T07:42:32;17.70;99.90
37528;DHT22;23372;52.050;4.810;2023-07-31T07:44:58;17.90;99.90
37528;DHT22;23372;52.050;4.810;2023-07-31T07:47:23;17.80;99.90
37528;DHT22;23372;52.050;4.810;2023-07-31T07:49:49;17.80;99.90
37528;DHT22;23372;52.050;4.810;2023-07-31T07:52:14;17.70;99.90
37528;DHT22;23372;52.050;4.810;2023-07-31T07:54:40;17.90;99.90
37528;DHT22;23372;52.050;4.810;2023-07-31T07:57:05;17.80;99.90
37528;DHT22;23372;52.050;4.810;2023-07-31T07:59:31;18.00;99.90
37528;DHT22;23372;52.050;4.810;2023-07-31T08:01:56;17.90;99.90
37528;DHT22;23372;52.050;4.810;2023-07-31T08:04:23;18.00;99.90
37528;DHT22;23372;52.050;4.810;2023-07-31T08:06:48;18.00;99.90
37528;DHT22;23372;52.050;4.810;2023-07-31T08:09:14;18.10;99.90
37528;DHT22;23372;52.050;4.810;2023-07-31T08:11:39;18.00;99.90
37528;DHT22;23372;52.050;4.810;2023-07-31T08:14:05;18.10;99.90
37528;DHT22;23372;52.050;4.810;2023-07-31T08:16:30;18.00;99.90
37528;DHT22;23372;52.050;4.810;2023-07-31T08:18:56;18.00;99.90
37528;DHT22;23372;52.050;4.810;2023-07-31T08:21:23;18.00;99.90
37528;DHT22;23372;52.050;4.810;2023-07-31T08:23:48;18.10;99.90
37528;DHT22;23372;52.050;4.810;2023-07-31T08:26:15;18.20;99.90
37528;DHT22;23372;52.050;4.810;2023-07-31T08:28:41;18.10;99.90
37528;DHT22;23372;52.050;4.810;2023-07-31T08:31:07;18.10;99.90
37528;DHT22;23372;52.050;4.810;2023-07-31T08:33:32;18.10;99.90
37528;DHT22;23372;52.050;4.810;2023-07-31T08:35:58;18.10;99.90
37528;DHT22;23372;52.050;4.810;2023-07-31T08:38:25;18.20;99.90
37528;DHT22;23372;52.050;4.810;2023-07-31T08:40:51;18.30;99.90
37528;DHT22;23372;52.050;4.810;2023-07-31T08:43:17;18.10;99.90
37528;DHT22;23372;52.050;4.810;2023-07-31T08:45:44;18.10;99.90
37528;DHT22;23372;52.050;4.810;2023-07-31T08:48:11;18.20;99.90
37528;DHT22;23372;52.050;4.810;2023-07-31T08:50:38;18.10;99.90
37528;DHT22;23372;52.050;4.810;2023-07-31T08:53:03;18.10;99.90
37528;DHT22;23372;52.050;4.810;2023-07-31T08:55:29;18.10;99.90
37528;DHT22;23372;52.050;4.810;2023-07-31T08:57:57;18.30;99.90
37528;DHT22;23372;52.050;4.810;2023-07-31T09:00:24;18.20;99.90
37528;DHT22;23372;52.050;4.810;2023-07-31T09:03:02;18.30;99.90
37528;DHT22;23372;52.050;4.810;2023-07-31T09:05:30;18.10;99.90
37528;DHT22;23372;52.050;4.810;2023-07-31T09:07:56;18.30;99.90
37528;DHT22;23372;52.050;4.810;2023-07-31T09:10:22;18.20;99.90
37528;DHT22;23372;52.050;4.810;2023-07-31T09:12:49;18.30;99.90
37528;DHT22;23372;52.050;4.810;2023-07-31T09:15:16;18.30;99.90
37528;DHT22;23372;52.050;4.810;2023-07-31T09:17:42;18.20;99.90
37528;DHT22;23372;52.050;4.810;2023-07-31T09:20:17;18.40;99.90
37528;DHT22;23372;52.050;4.810;2023-07-31T09:22:43;18.40;99.90
37528;DHT22;23372;52.050;4.810;2023-07-31T09:25:26;18.50;99.90
37528;DHT22;23372;52.050;4.810;2023-07-31T09:27:57;18.40;99.90
37528;DHT22;23372;52.050;4.810;2023-07-31T09:30:23;18.40;99.90
37528;DHT22;23372;52.050;4.810;2023-07-31T09:32:50;18.30;99.90
37528;DHT22;23372;52.050;4.810;2023-07-31T09:35:22;18.30;99.90
37528;DHT22;23372;52.050;4.810;2023-07-31T09:37:52;18.40;99.90
37528;DHT22;23372;52.050;4.810;2023-07-31T09:40:28;18.50;99.90
37528;DHT22;23372;52.050;4.810;2023-07-31T09:42:56;18.50;99.90
37528;DHT22;23372;52.050;4.810;2023-07-31T09:45:23;18.40;99.90
37528;DHT22;23372;52.050;4.810;2023-07-31T09:47:48;18.50;99.90
37528;DHT22;23372;52.050;4.810;2023-07-31T09:50:15;18.50;99.90
37528;DHT22;23372;52.050;4.810;2023-07-31T09:52:41;18.40;99.90
37528;DHT22;23372;52.050;4.810;2023-07-31T09:55:08;18.50;99.90
37528;DHT22;23372;52.050;4.810;2023-07-31T09:57:34;18.50;99.90
37528;DHT22;23372;52.050;4.810;2023-07-31T10:00:01;18.50;99.90
37528;DHT22;23372;52.050;4.810;2023-07-31T10:02:27;18.50;99.90
37528;DHT22;23372;52.050;4.810;2023-07-31T10:04:57;18.50;99.90
37528;DHT22;23372;52.050;4.810;2023-07-31T10:07:26;18.70;99.90
37528;DHT22;23372;52.050;4.810;2023-07-31T10:09:53;18.60;99.90
37528;DHT22;23372;52.050;4.810;2023-07-31T10:12:23;18.50;99.90
37528;DHT22;23372;52.050;4.810;2023-07-31T10:14:52;18.50;99.90
37528;DHT22;23372;52.050;4.810;2023-07-31T10:17:21;18.70;99.90
37528;DHT22;23372;52.050;4.810;2023-07-31T10:19:49;18.60;99.90
37528;DHT22;23372;52.050;4.810;2023-07-31T10:22:15;18.60;99.90
37528;DHT22;23372;52.050;4.810;2023-07-31T10:24:42;18.60;99.90
37528;DHT22;23372;52.050;4.810;2023-07-31T10:27:08;18.70;99.90
37528;DHT22;23372;52.050;4.810;2023-07-31T10:29:36;19.10;99.90
37528;DHT22;23372;52.050;4.810;2023-07-31T10:32:03;19.20;99.90
37528;DHT22;23372;52.050;4.810;2023-07-31T10:34:33;19.00;99.90
37528;DHT22;23372;52.050;4.810;2023-07-31T10:37:19;19.00;99.90
37528;DHT22;23372;52.050;4.810;2023-07-31T10:42:53;18.80;99.90
37528;DHT22;23372;52.050;4.810;2023-07-31T10:45:31;19.00;99.90
37528;DHT22;23372;52.050;4.810;2023-07-31T10:48:05;19.20;99.90
37528;DHT22;23372;52.050;4.810;2023-07-31T10:50:32;19.00;99.90
37528;DHT22;23372;52.050;4.810;2023-07-31T10:52:58;18.90;99.90
37528;DHT22;23372;52.050;4.810;2023-07-31T10:55:42;19.00;99.90
37528;DHT22;23372;52.050;4.810;2023-07-31T10:58:10;18.90;99.90
37528;DHT22;23372;52.050;4.810;2023-07-31T11:00:44;18.90;99.90
37528;DHT22;23372;52.050;4.810;2023-07-31T11:03:10;18.90;99.90
37528;DHT22;23372;52.050;4.810;2023-07-31T11:05:49;19.00;99.90
37528;DHT22;23372;52.050;4.810;2023-07-31T11:08:23;19.10;99.90
37528;DHT22;23372;52.050;4.810;2023-07-31T11:11:09;19.00;99.90
37528;DHT22;23372;52.050;4.810;2023-07-31T11:13:52;18.90;99.90
37528;DHT22;23372;52.050;4.810;2023-07-31T11:16:22;18.90;99.90
37528;DHT22;23372;52.050;4.810;2023-07-31T11:18:50;19.00;99.90
37528;DHT22;23372;52.050;4.810;2023-07-31T11:21:24;18.90;99.90
37528;DHT22;23372;52.050;4.810;2023-07-31T11:23:51;19.00;99.90
37528;DHT22;23372;52.050;4.810;2023-07-31T11:26:18;19.00;99.90
37528;DHT22;23372;52.050;4.810;2023-07-31T11:28:46;19.00;99.90
37528;DHT22;23372;52.050;4.810;2023-07-31T11:31:12;19.20;99.90
37528;DHT22;23372;52.050;4.810;2023-07-31T11:33:37;19.30;99.90
37528;DHT22;23372;52.050;4.810;2023-07-31T11:36:03;19.30;99.90
37528;DHT22;23372;52.050;4.810;2023-07-31T11:38:33;19.30;99.90
37528;DHT22;23372;52.050;4.810;2023-07-31T11:41:04;19.10;99.90
37528;DHT22;23372;52.050;4.810;2023-07-31T11:43:33;19.10;99.90
37528;DHT22;23372;52.050;4.810;2023-07-31T11:46:00;19.00;99.90
37528;DHT22;23372;52.050;4.810;2023-07-31T11:48:30;19.10;99.90
37528;DHT22;23372;52.050;4.810;2023-07-31T11:51:09;19.20;99.90
37528;DHT22;23372;52.050;4.810;2023-07-31T11:53:43;19.20;99.90
37528;DHT22;23372;52.050;4.810;2023-07-31T11:56:12;19.10;99.90
37528;DHT22;23372;52.050;4.810;2023-07-31T11:58:39;19.00;99.90
37528;DHT22;23372;52.050;4.810;2023-07-31T12:01:06;19.00;99.90
37528;DHT22;23372;52.050;4.810;2023-07-31T12:03:32;19.10;99.90
37528;DHT22;23372;52.050;4.810;2023-07-31T12:05:59;19.10;99.90
37528;DHT22;23372;52.050;4.810;2023-07-31T12:08:25;19.00;99.90
37528;DHT22;23372;52.050;4.810;2023-07-31T12:10:52;19.00;99.90
37528;DHT22;23372;52.050;4.810;2023-07-31T12:13:25;19.10;99.90
37528;DHT22;23372;52.050;4.810;2023-07-31T12:16:01;19.20;99.90
37528;DHT22;23372;52.050;4.810;2023-07-31T12:18:30;19.20;99.90
37528;DHT22;23372;52.050;4.810;2023-07-31T12:21:00;19.20;99.90
37528;DHT22;23372;52.050;4.810;2023-07-31T12:23:28;19.30;99.90
37528;DHT22;23372;52.050;4.810;2023-07-31T12:26:20;19.30;99.90
37528;DHT22;23372;52.050;4.810;2023-07-31T12:28:47;19.30;99.90
37528;DHT22;23372;52.050;4.810;2023-07-31T12:31:17;19.50;99.90
37528;DHT22;23372;52.050;4.810;2023-07-31T12:33:44;19.50;99.90
37528;DHT22;23372;52.050;4.810;2023-07-31T12:36:12;19.70;99.90
37528;DHT22;23372;52.050;4.810;2023-07-31T12:38:38;19.70;99.90
37528;DHT22;23372;52.050;4.810;2023-07-31T12:41:04;19.90;99.90
37528;DHT22;23372;52.050;4.810;2023-07-31T12:43:31;19.80;99.90
37528;DHT22;23372;52.050;4.810;2023-07-31T12:45:57;19.70;99.90
37528;DHT22;23372;52.050;4.810;2023-07-31T12:48:23;19.90;99.90
37528;DHT22;23372;52.050;4.810;2023-07-31T12:50:48;19.70;99.90
37528;DHT22;23372;52.050;4.810;2023-07-31T12:53:15;19.70;99.90
37528;DHT22;23372;52.050;4.810;2023-07-31T12:55:41;19.70;99.90
37528;DHT22;23372;52.050;4.810;2023-07-31T12:58:06;19.70;99.90
37528;DHT22;23372;52.050;4.810;2023-07-31T13:00:32;19.90;99.90
37528;DHT22;23372;52.050;4.810;2023-07-31T13:02:57;19.90;99.90
37528;DHT22;23372;52.050;4.810;2023-07-31T13:05:23;20.20;99.90
37528;DHT22;23372;52.050;4.810;2023-07-31T13:07:49;20.40;99.90
37528;DHT22;23372;52.050;4.810;2023-07-31T13:10:15;20.50;99.90
37528;DHT22;23372;52.050;4.810;2023-07-31T13:12:40;20.40;99.90
37528;DHT22;23372;52.050;4.810;2023-07-31T13:15:06;20.30;99.90
37528;DHT22;23372;52.050;4.810;2023-07-31T13:17:32;20.00;99.90
37528;DHT22;23372;52.050;4.810;2023-07-31T13:19:58;19.80;99.90
37528;DHT22;23372;52.050;4.810;2023-07-31T13:22:24;19.70;99.90
37528;DHT22;23372;52.050;4.810;2023-07-31T13:24:50;19.80;99.90
37528;DHT22;23372;52.050;4.810;2023-07-31T13:27:15;19.50;99.90
37528;DHT22;23372;52.050;4.810;2023-07-31T13:29:46;19.50;99.90
37528;DHT22;23372;52.050;4.810;2023-07-31T13:32:11;19.50;99.90
37528;DHT22;23372;52.050;4.810;2023-07-31T13:34:37;19.90;99.90
37528;DHT22;23372;52.050;4.810;2023-07-31T13:37:03;20.00;99.90
37528;DHT22;23372;52.050;4.810;2023-07-31T13:39:31;19.90;99.90
37528;DHT22;23372;52.050;4.810;2023-07-31T13:41:56;19.70;99.90
37528;DHT22;23372;52.050;4.810;2023-07-31T13:44:22;19.70;99.90
37528;DHT22;23372;52.050;4.810;2023-07-31T13:46:48;19.80;99.90
37528;DHT22;23372;52.050;4.810;2023-07-31T13:49:14;19.70;99.90
37528;DHT22;23372;52.050;4.810;2023-07-31T13:51:39;19.70;99.90
37528;DHT22;23372;52.050;4.810;2023-07-31T13:54:05;19.40;99.90
37528;DHT22;23372;52.050;4.810;2023-07-31T13:56:32;19.40;99.90
37528;DHT22;23372;52.050;4.810;2023-07-31T13:58:57;19.40;99.90
37528;DHT22;23372;52.050;4.810;2023-07-31T14:01:23;19.50;99.90
37528;DHT22;23372;52.050;4.810;2023-07-31T14:03:49;19.50;99.90
37528;DHT22;23372;52.050;4.810;2023-07-31T14:06:15;19.50;99.90
37528;DHT22;23372;52.050;4.810;2023-07-31T14:08:40;19.40;99.90
37528;DHT22;23372;52.050;4.810;2023-07-31T14:11:06;19.40;99.90
37528;DHT22;23372;52.050;4.810;2023-07-31T14:13:31;19.40;99.90
37528;DHT22;23372;52.050;4.810;2023-07-31T14:15:57;19.40;99.90
37528;DHT22;23372;52.050;4.810;2023-07-31T14:18:23;19.30;99.90
37528;DHT22;23372;52.050;4.810;2023-07-31T14:20:48;19.40;99.90
37528;DHT22;23372;52.050;4.810;2023-07-31T14:23:14;19.40;99.90
37528;DHT22;23372;52.050;4.810;2023-07-31T14:25:40;19.40;99.90
37528;DHT22;23372;52.050;4.810;2023-07-31T14:28:06;19.40;99.90
37528;DHT22;23372;52.050;4.810;2023-07-31T14:30:32;19.30;99.90
37528;DHT22;23372;52.050;4.810;2023-07-31T14:32:57;19.10;99.90
37528;DHT22;23372;52.050;4.810;2023-07-31T14:35:23;19.20;99.90
37528;DHT22;23372;52.050;4.810;2023-07-31T14:37:49;19.10;99.90
37528;DHT22;23372;52.050;4.810;2023-07-31T14:40:14;19.00;99.90
37528;DHT22;23372;52.050;4.810;2023-07-31T14:42:40;18.90;99.90
37528;DHT22;23372;52.050;4.810;2023-07-31T14:45:06;19.00;99.90
37528;DHT22;23372;52.050;4.810;2023-07-31T14:47:32;18.90;99.90
37528;DHT22;23372;52.050;4.810;2023-07-31T14:49:58;18.90;99.90
37528;DHT22;23372;52.050;4.810;2023-07-31T14:52:24;18.90;99.90
37528;DHT22;23372;52.050;4.810;2023-07-31T14:54:50;18.90;99.90
37528;DHT22;23372;52.050;4.810;2023-07-31T14:57:15;18.80;99.90
37528;DHT22;23372;52.050;4.810;2023-07-31T14:59:41;18.90;99.90
37528;DHT22;23372;52.050;4.810;2023-07-31T15:02:08;19.10;99.90
37528;DHT22;23372;52.050;4.810;2023-07-31T15:04:34;19.00;99.90
37528;DHT22;23372;52.050;4.810;2023-07-31T15:07:00;19.00;99.90
37528;DHT22;23372;52.050;4.810;2023-07-31T15:09:25;19.10;99.90
37528;DHT22;23372;52.050;4.810;2023-07-31T15:11:51;18.90;99.90
37528;DHT22;23372;52.050;4.810;2023-07-31T15:14:16;18.80;99.90
37528;DHT22;23372;52.050;4.810;2023-07-31T15:16:42;18.80;99.90
37528;DHT22;23372;52.050;4.810;2023-07-31T15:19:07;18.80;99.90
37528;DHT22;23372;52.050;4.810;2023-07-31T15:21:33;18.80;99.90
37528;DHT22;23372;52.050;4.810;2023-07-31T15:23:58;18.70;99.90
37528;DHT22;23372;52.050;4.810;2023-07-31T15:26:24;18.70;99.90
37528;DHT22;23372;52.050;4.810;2023-07-31T15:28:56;18.80;99.90
37528;DHT22;23372;52.050;4.810;2023-07-31T15:31:21;18.70;99.90
37528;DHT22;23372;52.050;4.810;2023-07-31T15:33:48;18.60;99.90
37528;DHT22;23372;52.050;4.810;2023-07-31T15:36:13;18.60;99.90
37528;DHT22;23372;52.050;4.810;2023-07-31T15:38:39;18.60;99.90